sensor_id;sensor_type;location;lat;lon;timestamp;temperature;humidity
14079;DHT22;7115;50.150;8.568;2023-01-30T00:01:48;1.40;99.90
14079;DHT22;7115;50.150;8.568;2023-01-30T00:04:15;1.40;99.90
14079;DHT22;7115;50.150;8.568;2023-01-30T00:06:43;1.50;99.90
14079;DHT22;7115;50.150;8.568;2023-01-30T00:09:11;1.50;99.90
14079;DHT22;7115;50.150;8.568;2023-01-30T00:11:39;1.50;99.90
14079;DHT22;7115;50.150;8.568;2023-01-30T00:14:07;1.50;99.90
14079;DHT22;7115;50.150;8.568;2023-01-30T00:16:34;1.50;99.90
14079;DHT22;7115;50.150;8.568;2023-01-30T00:19:01;1.50;99.90
14079;DHT22;7115;50.150;8.568;2023-01-30T00:21:28;1.50;99.90
14079;DHT22;7115;50.150;8.568;2023-01-30T00:23:55;1.50;99.90
14079;DHT22;7115;50.150;8.568;2023-01-30T00:26:21;1.50;99.90
14079;DHT22;7115;50.150;8.568;2023-01-30T00:28:50;1.50;99.90
14079;DHT22;7115;50.150;8.568;2023-01-30T00:31:17;1.50;99.90
14079;DHT22;7115;50.150;8.568;2023-01-30T00:33:44;1.50;99.90
14079;DHT22;7115;50.150;8.568;2023-01-30T00:36:12;1.50;99.90
14079;DHT22;7115;50.150;8.568;2023-01-30T00:38:39;1.50;99.90
14079;DHT22;7115;50.150;8.568;2023-01-30T00:41:06;1.50;99.90
14079;DHT22;7115;50.150;8.568;2023-01-30T00:43:33;1.50;99.90
14079;DHT22;7115;50.150;8.568;2023-01-30T00:46:24;1.50;99.90
14079;DHT22;7115;50.150;8.568;2023-01-30T00:49:11;1.50;99.90
14079;DHT22;7115;50.150;8.568;2023-01-30T00:51:37;1.60;99.90
14079;DHT22;7115;50.150;8.568;2023-01-30T00:54:04;1.60;99.90
14079;DHT22;7115;50.150;8.568;2023-01-30T00:56:31;1.60;99.90
14079;DHT22;7115;50.150;8.568;2023-01-30T00:58:58;1.60;99.90
14079;DHT22;7115;50.150;8.568;2023-01-30T01:01:27;1.70;99.90
14079;DHT22;7115;50.150;8.568;2023-01-30T01:03:54;1.70;99.90
14079;DHT22;7115;50.150;8.568;2023-01-30T01:06:20;1.70;99.90
14079;DHT22;7115;50.150;8.568;2023-01-30T01:08:47;1.70;99.90
14079;DHT22;7115;50.150;8.568;2023-01-30T01:11:14;1.70;99.90
14079;DHT22;7115;50.150;8.568;2023-01-30T01:13:51;1.70;99.90
14079;DHT22;7115;50.150;8.568;2023-01-30T01:16:19;1.70;99.90
14079;DHT22;7115;50.150;8.568;2023-01-30T01:18:47;1.70;99.90
14079;DHT22;7115;50.150;8.568;2023-01-30T01:21:15;1.70;99.90
14079;DHT22;7115;50.150;8.568;2023-01-30T01:23:48;1.70;99.90
14079;DHT22;7115;50.150;8.568;2023-01-30T01:26:15;1.80;99.90
14079;DHT22;7115;50.150;8.568;2023-01-30T01:28:42;1.70;99.90
14079;DHT22;7115;50.150;8.568;2023-01-30T01:31:10;1.70;99.90
14079;DHT22;7115;50.150;8.568;2023-01-30T01:33:37;1.70;99.90
14079;DHT22;7115;50.150;8.568;2023-01-30T01:36:07;1.70;99.90
14079;DHT22;7115;50.150;8.568;2023-01-30T01:38:34;1.70;99.90
14079;DHT22;7115;50.150;8.568;2023-01-30T01:41:01;1.70;99.90
14079;DHT22;7115;50.150;8.568;2023-01-30T01:43:30;1.70;99.90
14079;DHT22;7115;50.150;8.568;2023-01-30T01:46:00;1.70;99.90
14079;DHT22;7115;50.150;8.568;2023-01-30T01:48:30;1.70;99.90
14079;DHT22;7115;50.150;8.568;2023-01-30T01:51:01;1.70;99.90
14079;DHT22;7115;50.150;8.568;2023-01-30T01:53:32;1.70;99.90
14079;DHT22;7115;50.150;8.568;2023-01-30T01:56:03;1.70;99.90
14079;DHT22;7115;50.150;8.568;2023-01-30T01:58:36;1.70;99.90
14079;DHT22;7115;50.150;8.568;2023-01-30T02:01:05;1.70;99.90
14079;DHT22;7115;50.150;8.568;2023-01-30T02:03:36;1.70;99.90
14079;DHT22;7115;50.150;8.568;2023-01-30T02:06:04;1.70;99.90
14079;DHT22;7115;50.150;8.568;2023-01-30T02:08:36;1.70;99.90
14079;DHT22;7115;50.150;8.568;2023-01-30T02:11:07;1.70;99.90
14079;DHT22;7115;50.150;8.568;2023-01-30T02:13:35;1.70;99.90
14079;DHT22;7115;50.150;8.568;2023-01-30T02:16:03;1.70;99.90
14079;DHT22;7115;50.150;8.568;2023-01-30T02:18:32;1.70;99.90
14079;DHT22;7115;50.150;8.568;2023-01-30T02:24:49;1.80;99.90
14079;DHT22;7115;50.150;8.568;2023-01-30T02:27:35;1.80;99.90
14079;DHT22;7115;50.150;8.568;2023-01-30T02:30:51;1.80;99.90
14079;DHT22;7115;50.150;8.568;2023-01-30T02:33:31;1.80;99.90
14079;DHT22;7115;50.150;8.568;2023-01-30T02:36:07;1.80;99.90
14079;DHT22;7115;50.150;8.568;2023-01-30T02:38:40;1.80;99.90
14079;DHT22;7115;50.150;8.568;2023-01-30T02:41:16;1.80;99.90
14079;DHT22;7115;50.150;8.568;2023-01-30T02:43:50;1.90;99.90
14079;DHT22;7115;50.150;8.568;2023-01-30T02:46:25;1.90;99.90
14079;DHT22;7115;50.150;8.568;2023-01-30T02:49:01;1.90;99.90
14079;DHT22;7115;50.150;8.568;2023-01-30T02:51:34;2.00;99.90
14079;DHT22;7115;50.150;8.568;2023-01-30T02:54:01;2.00;99.90
14079;DHT22;7115;50.150;8.568;2023-01-30T02:56:42;1.90;99.90
14079;DHT22;7115;50.150;8.568;2023-01-30T02:59:09;2.00;99.90
14079;DHT22;7115;50.150;8.568;2023-01-30T03:04:59;2.00;99.90
14079;DHT22;7115;50.150;8.568;2023-01-30T03:07:39;2.00;99.90
14079;DHT22;7115;50.150;8.568;2023-01-30T03:10:15;2.00;99.90
14079;DHT22;7115;50.150;8.568;2023-01-30T03:12:48;2.00;99.90
14079;DHT22;7115;50.150;8.568;2023-01-30T03:15:24;2.10;99.90
14079;DHT22;7115;50.150;8.568;2023-01-30T03:17:54;2.00;99.90
14079;DHT22;7115;50.150;8.568;2023-01-30T03:20:22;2.10;99.90
14079;DHT22;7115;50.150;8.568;2023-01-30T03:22:49;2.00;99.90
14079;DHT22;7115;50.150;8.568;2023-01-30T03:25:18;2.10;99.90
14079;DHT22;7115;50.150;8.568;2023-01-30T03:27:47;2.10;99.90
14079;DHT22;7115;50.150;8.568;2023-01-30T03:30:16;2.10;99.90
14079;DHT22;7115;50.150;8.568;2023-01-30T03:32:43;2.10;99.90
14079;DHT22;7115;50.150;8.568;2023-01-30T03:35:11;2.10;99.90
14079;DHT22;7115;50.150;8.568;2023-01-30T03:37:38;2.10;99.90
14079;DHT22;7115;50.150;8.568;2023-01-30T03:40:06;2.10;99.90
14079;DHT22;7115;50.150;8.568;2023-01-30T03:42:33;2.10;99.90
14079;DHT22;7115;50.150;8.568;2023-01-30T03:45:00;2.10;99.90
14079;DHT22;7115;50.150;8.568;2023-01-30T03:47:27;2.10;99.90
14079;DHT22;7115;50.150;8.568;2023-01-30T03:49:54;2.10;99.90
14079;DHT22;7115;50.150;8.568;2023-01-30T03:52:22;2.10;99.90
14079;DHT22;7115;50.150;8.568;2023-01-30T03:54:49;2.10;99.90
14079;DHT22;7115;50.150;8.568;2023-01-30T03:57:16;2.10;99.90
14079;DHT22;7115;50.150;8.568;2023-01-30T03:59:43;2.10;99.90
14079;DHT22;7115;50.150;8.568;2023-01-30T04:02:10;2.10;99.90
14079;DHT22;7115;50.150;8.568;2023-01-30T04:04:37;2.20;99.90
14079;DHT22;7115;50.150;8.568;2023-01-30T04:07:03;2.20;99.90
14079;DHT22;7115;50.150;8.568;2023-01-30T04:09:32;2.20;99.90
14079;DHT22;7115;50.150;8.568;2023-01-30T04:11:58;2.20;99.90
14079;DHT22;7115;50.150;8.568;2023-01-30T04:14:25;2.30;99.90
14079;DHT22;7115;50.150;8.568;2023-01-30T04:16:52;2.30;99.90
14079;DHT22;7115;50.150;8.568;2023-01-30T04:19:19;2.20;99.90
14079;DHT22;7115;50.150;8.568;2023-01-30T04:21:46;2.20;99.90
14079;DHT22;7115;50.150;8.568;2023-01-30T04:24:13;2.20;99.90
14079;DHT22;7115;50.150;8.568;2023-01-30T04:26:41;2.20;99.90
14079;DHT22;7115;50.150;8.568;2023-01-30T04:29:08;2.20;99.90
14079;DHT22;7115;50.150;8.568;2023-01-30T04:31:35;2.20;99.90
14079;DHT22;7115;50.150;8.568;2023-01-30T04:34:02;2.20;99.90
14079;DHT22;7115;50.150;8.568;2023-01-30T04:36:29;2.20;99.90
14079;DHT22;7115;50.150;8.568;2023-01-30T04:38:56;2.20;99.90
14079;DHT22;7115;50.150;8.568;2023-01-30T04:41:23;2.20;99.90
14079;DHT22;7115;50.150;8.568;2023-01-30T04:43:52;2.20;99.90
14079;DHT22;7115;50.150;8.568;2023-01-30T04:46:19;2.20;99.90
14079;DHT22;7115;50.150;8.568;2023-01-30T04:48:45;2.30;99.90
14079;DHT22;7115;50.150;8.568;2023-01-30T04:51:12;2.20;99.90
14079;DHT22;7115;50.150;8.568;2023-01-30T04:53:39;2.30;99.90
14079;DHT22;7115;50.150;8.568;2023-01-30T04:56:06;2.20;99.90
14079;DHT22;7115;50.150;8.568;2023-01-30T04:58:33;2.20;99.90
14079;DHT22;7115;50.150;8.568;2023-01-30T05:01:19;2.30;99.90
14079;DHT22;7115;50.150;8.568;2023-01-30T05:03:49;2.30;99.90
14079;DHT22;7115;50.150;8.568;2023-01-30T05:06:15;2.30;99.90
14079;DHT22;7115;50.150;8.568;2023-01-30T05:08:42;2.30;99.90
14079;DHT22;7115;50.150;8.568;2023-01-30T05:11:12;2.30;99.90
14079;DHT22;7115;50.150;8.568;2023-01-30T05:13:39;2.30;99.90
14079;DHT22;7115;50.150;8.568;2023-01-30T05:16:06;2.40;99.90
14079;DHT22;7115;50.150;8.568;2023-01-30T05:18:34;2.40;99.90
14079;DHT22;7115;50.150;8.568;2023-01-30T05:21:05;2.40;99.90
14079;DHT22;7115;50.150;8.568;2023-01-30T05:23:32;2.30;99.90
14079;DHT22;7115;50.150;8.568;2023-01-30T05:25:59;2.40;99.90
14079;DHT22;7115;50.150;8.568;2023-01-30T05:28:26;2.40;99.90
14079;DHT22;7115;50.150;8.568;2023-01-30T05:30:59;2.40;99.90
14079;DHT22;7115;50.150;8.568;2023-01-30T05:33:26;2.40;99.90
14079;DHT22;7115;50.150;8.568;2023-01-30T05:35:54;2.30;99.90
14079;DHT22;7115;50.150;8.568;2023-01-30T05:38:22;2.40;99.90
14079;DHT22;7115;50.150;8.568;2023-01-30T05:40:57;2.40;99.90
14079;DHT22;7115;50.150;8.568;2023-01-30T05:43:24;2.40;99.90
14079;DHT22;7115;50.150;8.568;2023-01-30T05:45:51;2.40;99.90
14079;DHT22;7115;50.150;8.568;2023-01-30T05:48:19;2.40;99.90
14079;DHT22;7115;50.150;8.568;2023-01-30T05:50:46;2.40;99.90
14079;DHT22;7115;50.150;8.568;2023-01-30T05:53:14;2.40;99.90
14079;DHT22;7115;50.150;8.568;2023-01-30T05:55:41;2.40;99.90
14079;DHT22;7115;50.150;8.568;2023-01-30T05:58:09;2.40;99.90
14079;DHT22;7115;50.150;8.568;2023-01-30T06:00:36;2.40;99.90
14079;DHT22;7115;50.150;8.568;2023-01-30T06:03:03;2.40;99.90
14079;DHT22;7115;50.150;8.568;2023-01-30T06:05:30;2.40;99.90
14079;DHT22;7115;50.150;8.568;2023-01-30T06:07:57;2.40;99.90
14079;DHT22;7115;50.150;8.568;2023-01-30T06:10:25;2.40;99.90
14079;DHT22;7115;50.150;8.568;2023-01-30T06:12:52;2.40;99.90
14079;DHT22;7115;50.150;8.568;2023-01-30T06:15:19;2.40;99.90
14079;DHT22;7115;50.150;8.568;2023-01-30T06:17:46;2.40;99.90
14079;DHT22;7115;50.150;8.568;2023-01-30T06:20:13;2.40;99.90
14079;DHT22;7115;50.150;8.568;2023-01-30T06:22:40;2.40;99.90
14079;DHT22;7115;50.150;8.568;2023-01-30T06:25:08;2.40;99.90
14079;DHT22;7115;50.150;8.568;2023-01-30T06:27:36;2.40;99.90
14079;DHT22;7115;50.150;8.568;2023-01-30T06:30:04;2.40;99.90
14079;DHT22;7115;50.150;8.568;2023-01-30T06:32:30;2.40;99.90
14079;DHT22;7115;50.150;8.568;2023-01-30T06:34:57;2.40;99.90
14079;DHT22;7115;50.150;8.568;2023-01-30T06:37:24;2.40;99.90
14079;DHT22;7115;50.150;8.568;2023-01-30T06:39:51;2.40;99.90
14079;DHT22;7115;50.150;8.568;2023-01-30T06:42:18;2.40;99.90
14079;DHT22;7115;50.150;8.568;2023-01-30T06:44:46;2.40;99.90
14079;DHT22;7115;50.150;8.568;2023-01-30T06:47:13;2.40;99.90
14079;DHT22;7115;50.150;8.568;2023-01-30T06:49:40;2.40;99.90
14079;DHT22;7115;50.150;8.568;2023-01-30T06:52:07;2.40;99.90
14079;DHT22;7115;50.150;8.568;2023-01-30T06:54:33;2.40;99.90
14079;DHT22;7115;50.150;8.568;2023-01-30T06:57:00;2.50;99.90
14079;DHT22;7115;50.150;8.568;2023-01-30T06:59:27;2.50;99.90
14079;DHT22;7115;50.150;8.568;2023-01-30T07:01:55;2.50;99.90
14079;DHT22;7115;50.150;8.568;2023-01-30T07:04:22;2.60;99.90
14079;DHT22;7115;50.150;8.568;2023-01-30T07:06:49;2.60;99.90
14079;DHT22;7115;50.150;8.568;2023-01-30T07:09:16;2.60;99.90
14079;DHT22;7115;50.150;8.568;2023-01-30T07:11:43;2.60;99.90
14079;DHT22;7115;50.150;8.568;2023-01-30T07:14:10;2.60;99.90
14079;DHT22;7115;50.150;8.568;2023-01-30T07:16:37;2.70;99.90
14079;DHT22;7115;50.150;8.568;2023-01-30T07:19:05;2.70;99.90
14079;DHT22;7115;50.150;8.568;2023-01-30T07:21:32;2.70;99.90
14079;DHT22;7115;50.150;8.568;2023-01-30T07:23:59;2.70;99.90
14079;DHT22;7115;50.150;8.568;2023-01-30T07:26:26;2.80;99.90
14079;DHT22;7115;50.150;8.568;2023-01-30T07:28:55;2.80;99.90
14079;DHT22;7115;50.150;8.568;2023-01-30T07:31:22;2.80;99.90
14079;DHT22;7115;50.150;8.568;2023-01-30T07:33:48;2.80;99.90
14079;DHT22;7115;50.150;8.568;2023-01-30T07:36:17;2.80;99.90
14079;DHT22;7115;50.150;8.568;2023-01-30T07:38:44;2.80;99.90
14079;DHT22;7115;50.150;8.568;2023-01-30T07:41:13;2.80;99.90
14079;DHT22;7115;50.150;8.568;2023-01-30T07:43:40;2.80;99.90
14079;DHT22;7115;50.150;8.568;2023-01-30T07:46:07;2.70;99.90
14079;DHT22;7115;50.150;8.568;2023-01-30T07:48:34;2.80;99.90
14079;DHT22;7115;50.150;8.568;2023-01-30T07:51:01;2.80;99.90
14079;DHT22;7115;50.150;8.568;2023-01-30T07:53:29;2.80;99.90
14079;DHT22;7115;50.150;8.568;2023-01-30T07:55:56;2.70;99.90
14079;DHT22;7115;50.150;8.568;2023-01-30T07:58:23;2.80;99.90
14079;DHT22;7115;50.150;8.568;2023-01-30T08:00:54;2.80;99.90
14079;DHT22;7115;50.150;8.568;2023-01-30T08:03:21;2.80;99.90
14079;DHT22;7115;50.150;8.568;2023-01-30T08:05:48;2.80;99.90
14079;DHT22;7115;50.150;8.568;2023-01-30T08:08:15;2.80;99.90
14079;DHT22;7115;50.150;8.568;2023-01-30T08:10:44;2.80;99.90
14079;DHT22;7115;50.150;8.568;2023-01-30T08:13:11;2.70;99.90
14079;DHT22;7115;50.150;8.568;2023-01-30T08:15:38;2.70;99.90
14079;DHT22;7115;50.150;8.568;2023-01-30T08:18:04;2.70;99.90
14079;DHT22;7115;50.150;8.568;2023-01-30T08:20:33;2.70;99.90
14079;DHT22;7115;50.150;8.568;2023-01-30T08:23:00;2.70;99.90
14079;DHT22;7115;50.150;8.568;2023-01-30T08:25:30;2.80;99.90
14079;DHT22;7115;50.150;8.568;2023-01-30T08:27:58;2.80;99.90
14079;DHT22;7115;50.150;8.568;2023-01-30T08:30:27;2.80;99.90
14079;DHT22;7115;50.150;8.568;2023-01-30T08:32:56;2.80;99.90
14079;DHT22;7115;50.150;8.568;2023-01-30T08:35:23;2.70;99.90
14079;DHT22;7115;50.150;8.568;2023-01-30T08:37:50;2.70;99.90
14079;DHT22;7115;50.150;8.568;2023-01-30T08:40:17;2.80;99.90
14079;DHT22;7115;50.150;8.568;2023-01-30T08:42:44;2.80;99.90
14079;DHT22;7115;50.150;8.568;2023-01-30T08:45:13;2.80;99.90
14079;DHT22;7115;50.150;8.568;2023-01-30T08:47:40;2.80;99.90
14079;DHT22;7115;50.150;8.568;2023-01-30T08:50:08;2.80;99.90
14079;DHT22;7115;50.150;8.568;2023-01-30T08:52:35;2.80;99.90
14079;DHT22;7115;50.150;8.568;2023-01-30T08:55:02;2.80;99.90
14079;DHT22;7115;50.150;8.568;2023-01-30T08:57:29;2.80;99.90
14079;DHT22;7115;50.150;8.568;2023-01-30T08:59:58;2.80;99.90
14079;DHT22;7115;50.150;8.568;2023-01-30T09:02:26;2.90;99.90
14079;DHT22;7115;50.150;8.568;2023-01-30T09:04:53;2.90;99.90
14079;DHT22;7115;50.150;8.568;2023-01-30T09:07:20;2.90;99.90
14079;DHT22;7115;50.150;8.568;2023-01-30T09:09:47;2.90;99.90
14079;DHT22;7115;50.150;8.568;2023-01-30T09:12:14;2.90;99.90
14079;DHT22;7115;50.150;8.568;2023-01-30T09:14:41;2.90;99.90
14079;DHT22;7115;50.150;8.568;2023-01-30T09:17:08;2.90;99.90
14079;DHT22;7115;50.150;8.568;2023-01-30T09:19:36;3.00;99.90
14079;DHT22;7115;50.150;8.568;2023-01-30T09:22:04;3.00;99.90
14079;DHT22;7115;50.150;8.568;2023-01-30T09:24:33;3.00;99.90
14079;DHT22;7115;50.150;8.568;2023-01-30T09:27:00;3.00;99.90
14079;DHT22;7115;50.150;8.568;2023-01-30T09:29:27;3.10;99.90
14079;DHT22;7115;50.150;8.568;2023-01-30T09:31:55;3.10;99.90
14079;DHT22;7115;50.150;8.568;2023-01-30T09:34:22;3.10;99.90
14079;DHT22;7115;50.150;8.568;2023-01-30T09:36:54;3.10;99.90
14079;DHT22;7115;50.150;8.568;2023-01-30T09:39:22;3.20;99.90
14079;DHT22;7115;50.150;8.568;2023-01-30T09:45:36;3.20;99.90
14079;DHT22;7115;50.150;8.568;2023-01-30T09:48:17;3.30;99.90
14079;DHT22;7115;50.150;8.568;2023-01-30T09:51:08;3.30;99.90
14079;DHT22;7115;50.150;8.568;2023-01-30T09:56:29;3.40;99.90
14079;DHT22;7115;50.150;8.568;2023-01-30T09:58:58;3.50;99.90
14079;DHT22;7115;50.150;8.568;2023-01-30T10:01:32;3.50;99.90
14079;DHT22;7115;50.150;8.568;2023-01-30T10:04:10;3.60;99.90
14079;DHT22;7115;50.150;8.568;2023-01-30T10:06:45;3.60;99.90
14079;DHT22;7115;50.150;8.568;2023-01-30T10:09:21;3.70;99.90
14079;DHT22;7115;50.150;8.568;2023-01-30T10:12:01;3.70;99.90
14079;DHT22;7115;50.150;8.568;2023-01-30T10:14:49;3.80;99.90
14079;DHT22;7115;50.150;8.568;2023-01-30T10:17:35;3.90;99.90
14079;DHT22;7115;50.150;8.568;2023-01-30T10:20:25;4.00;99.90
14079;DHT22;7115;50.150;8.568;2023-01-30T10:23:10;4.10;99.90
14079;DHT22;7115;50.150;8.568;2023-01-30T10:25:45;4.10;99.90
14079;DHT22;7115;50.150;8.568;2023-01-30T10:28:17;4.20;99.90
14079;DHT22;7115;50.150;8.568;2023-01-30T10:30:50;4.20;99.90
14079;DHT22;7115;50.150;8.568;2023-01-30T10:33:23;4.20;99.90
14079;DHT22;7115;50.150;8.568;2023-01-30T10:35:58;4.30;99.90
14079;DHT22;7115;50.150;8.568;2023-01-30T10:38:32;4.30;99.90
14079;DHT22;7115;50.150;8.568;2023-01-30T10:41:06;4.40;99.90
14079;DHT22;7115;50.150;8.568;2023-01-30T10:43:38;4.50;99.90
14079;DHT22;7115;50.150;8.568;2023-01-30T10:46:22;4.50;99.90
14079;DHT22;7115;50.150;8.568;2023-01-30T10:48:57;4.60;99.90
14079;DHT22;7115;50.150;8.568;2023-01-30T10:51:32;4.70;99.90
14079;DHT22;7115;50.150;8.568;2023-01-30T10:54:04;4.80;99.90
14079;DHT22;7115;50.150;8.568;2023-01-30T10:56:41;4.90;99.90
14079;DHT22;7115;50.150;8.568;2023-01-30T10:59:21;5.00;99.90
14079;DHT22;7115;50.150;8.568;2023-01-30T11:01:57;5.10;99.90
14079;DHT22;7115;50.150;8.568;2023-01-30T11:04:30;5.10;99.90
14079;DHT22;7115;50.150;8.568;2023-01-30T11:06:59;5.20;99.90
14079;DHT22;7115;50.150;8.568;2023-01-30T11:09:42;5.30;99.90
14079;DHT22;7115;50.150;8.568;2023-01-30T11:12:12;5.40;99.90
14079;DHT22;7115;50.150;8.568;2023-01-30T11:14:50;5.50;99.90
14079;DHT22;7115;50.150;8.568;2023-01-30T11:17:28;5.60;99.90
14079;DHT22;7115;50.150;8.568;2023-01-30T11:19:56;5.70;99.90
14079;DHT22;7115;50.150;8.568;2023-01-30T11:22:24;5.90;99.90
14079;DHT22;7115;50.150;8.568;2023-01-30T11:25:04;6.10;99.90
14079;DHT22;7115;50.150;8.568;2023-01-30T11:27:34;6.20;99.90
14079;DHT22;7115;50.150;8.568;2023-01-30T11:30:05;6.20;99.90
14079;DHT22;7115;50.150;8.568;2023-01-30T11:32:33;6.20;99.90
14079;DHT22;7115;50.150;8.568;2023-01-30T11:35:10;6.30;99.90
14079;DHT22;7115;50.150;8.568;2023-01-30T11:37:44;6.40;99.90
14079;DHT22;7115;50.150;8.568;2023-01-30T11:40:24;6.40;99.90
14079;DHT22;7115;50.150;8.568;2023-01-30T11:43:00;6.50;99.90
14079;DHT22;7115;50.150;8.568;2023-01-30T11:45:33;6.50;99.90
14079;DHT22;7115;50.150;8.568;2023-01-30T11:48:05;6.60;99.90
14079;DHT22;7115;50.150;8.568;2023-01-30T11:50:57;6.70;99.90
14079;DHT22;7115;50.150;8.568;2023-01-30T11:53:31;6.80;99.90
14079;DHT22;7115;50.150;8.568;2023-01-30T11:56:06;6.90;99.90
14079;DHT22;7115;50.150;8.568;2023-01-30T11:58:38;7.00;99.90
14079;DHT22;7115;50.150;8.568;2023-01-30T12:01:08;7.00;99.90
14079;DHT22;7115;50.150;8.568;2023-01-30T12:03:46;7.00;99.90
14079;DHT22;7115;50.150;8.568;2023-01-30T12:06:21;7.00;99.90
14079;DHT22;7115;50.150;8.568;2023-01-30T12:08:51;7.00;99.90
14079;DHT22;7115;50.150;8.568;2023-01-30T12:11:26;7.00;99.90
14079;DHT22;7115;50.150;8.568;2023-01-30T12:14:04;7.00;99.90
14079;DHT22;7115;50.150;8.568;2023-01-30T12:16:49;7.10;99.90
14079;DHT22;7115;50.150;8.568;2023-01-30T12:19:28;7.10;99.90
14079;DHT22;7115;50.150;8.568;2023-01-30T12:22:01;7.10;99.90
14079;DHT22;7115;50.150;8.568;2023-01-30T12:24:36;7.00;99.90
14079;DHT22;7115;50.150;8.568;2023-01-30T12:27:10;7.00;99.90
14079;DHT22;7115;50.150;8.568;2023-01-30T12:29:50;7.00;99.90
14079;DHT22;7115;50.150;8.568;2023-01-30T12:32:24;7.10;99.90
14079;DHT22;7115;50.150;8.568;2023-01-30T12:34:51;7.10;99.90
14079;DHT22;7115;50.150;8.568;2023-01-30T12:37:31;7.10;99.90
14079;DHT22;7115;50.150;8.568;2023-01-30T12:40:05;7.10;99.90
14079;DHT22;7115;50.150;8.568;2023-01-30T12:42:52;7.10;99.90
14079;DHT22;7115;50.150;8.568;2023-01-30T12:45:28;7.20;99.90
14079;DHT22;7115;50.150;8.568;2023-01-30T12:48:16;7.20;99.90
14079;DHT22;7115;50.150;8.568;2023-01-30T12:51:03;7.20;99.90
14079;DHT22;7115;50.150;8.568;2023-01-30T12:53:38;7.30;99.90
14079;DHT22;7115;50.150;8.568;2023-01-30T12:56:32;7.30;99.90
14079;DHT22;7115;50.150;8.568;2023-01-30T12:59:06;7.30;99.90
14079;DHT22;7115;50.150;8.568;2023-01-30T13:01:45;7.40;99.90
14079;DHT22;7115;50.150;8.568;2023-01-30T13:04:21;7.50;99.90
14079;DHT22;7115;50.150;8.568;2023-01-30T13:07:00;7.30;99.90
14079;DHT22;7115;50.150;8.568;2023-01-30T13:09:41;7.60;99.90
14079;DHT22;7115;50.150;8.568;2023-01-30T13:12:20;7.60;99.90
14079;DHT22;7115;50.150;8.568;2023-01-30T13:14:54;7.60;99.90
14079;DHT22;7115;50.150;8.568;2023-01-30T13:17:38;7.60;99.90
14079;DHT22;7115;50.150;8.568;2023-01-30T13:20:19;7.60;99.90
14079;DHT22;7115;50.150;8.568;2023-01-30T13:22:54;7.70;99.90
14079;DHT22;7115;50.150;8.568;2023-01-30T13:25:28;7.50;99.90
14079;DHT22;7115;50.150;8.568;2023-01-30T13:28:02;7.70;99.90
14079;DHT22;7115;50.150;8.568;2023-01-30T13:30:33;7.70;99.90
14079;DHT22;7115;50.150;8.568;2023-01-30T13:33:05;7.60;99.90
14079;DHT22;7115;50.150;8.568;2023-01-30T13:35:40;7.70;99.90
14079;DHT22;7115;50.150;8.568;2023-01-30T13:38:13;7.70;99.90
14079;DHT22;7115;50.150;8.568;2023-01-30T13:40:43;7.70;99.90
14079;DHT22;7115;50.150;8.568;2023-01-30T13:43:16;7.70;99.90
14079;DHT22;7115;50.150;8.568;2023-01-30T13:45:46;7.70;99.90
14079;DHT22;7115;50.150;8.568;2023-01-30T13:48:27;7.80;99.90
14079;DHT22;7115;50.150;8.568;2023-01-30T13:51:11;7.80;99.90
14079;DHT22;7115;50.150;8.568;2023-01-30T13:53:47;7.80;99.90
14079;DHT22;7115;50.150;8.568;2023-01-30T13:56:21;7.80;99.90
14079;DHT22;7115;50.150;8.568;2023-01-30T13:59:14;7.80;99.90
14079;DHT22;7115;50.150;8.568;2023-01-30T14:02:17;7.80;99.90
14079;DHT22;7115;50.150;8.568;2023-01-30T14:04:48;7.80;99.90
14079;DHT22;7115;50.150;8.568;2023-01-30T14:07:20;7.70;99.90
14079;DHT22;7115;50.150;8.568;2023-01-30T14:09:51;7.70;99.90
14079;DHT22;7115;50.150;8.568;2023-01-30T14:12:33;7.70;99.90
14079;DHT22;7115;50.150;8.568;2023-01-30T14:15:03;7.80;99.90
14079;DHT22;7115;50.150;8.568;2023-01-30T14:17:32;7.80;99.90
14079;DHT22;7115;50.150;8.568;2023-01-30T14:20:04;7.80;99.90
14079;DHT22;7115;50.150;8.568;2023-01-30T14:22:49;7.80;99.90
14079;DHT22;7115;50.150;8.568;2023-01-30T14:25:42;7.80;99.90
14079;DHT22;7115;50.150;8.568;2023-01-30T14:34:46;7.90;99.90
14079;DHT22;7115;50.150;8.568;2023-01-30T14:40:35;8.10;99.90
14079;DHT22;7115;50.150;8.568;2023-01-30T14:43:33;8.20;99.90
14079;DHT22;7115;50.150;8.568;2023-01-30T14:46:02;8.40;99.90
14079;DHT22;7115;50.150;8.568;2023-01-30T14:48:37;8.50;99.90
14079;DHT22;7115;50.150;8.568;2023-01-30T14:51:15;8.50;99.90
14079;DHT22;7115;50.150;8.568;2023-01-30T14:53:54;8.50;99.90
14079;DHT22;7115;50.150;8.568;2023-01-30T14:56:39;8.40;99.90
14079;DHT22;7115;50.150;8.568;2023-01-30T14:59:10;8.40;99.90
14079;DHT22;7115;50.150;8.568;2023-01-30T15:02:00;8.40;99.90
14079;DHT22;7115;50.150;8.568;2023-01-30T15:04:31;8.40;99.90
14079;DHT22;7115;50.150;8.568;2023-01-30T15:07:00;8.40;99.90
14079;DHT22;7115;50.150;8.568;2023-01-30T15:09:32;8.30;99.90
14079;DHT22;7115;50.150;8.568;2023-01-30T15:12:15;8.30;99.90
14079;DHT22;7115;50.150;8.568;2023-01-30T15:14:51;8.40;99.90
14079;DHT22;7115;50.150;8.568;2023-01-30T15:17:27;8.40;99.90
14079;DHT22;7115;50.150;8.568;2023-01-30T15:20:31;8.40;99.90
14079;DHT22;7115;50.150;8.568;2023-01-30T15:23:29;8.40;99.90
14079;DHT22;7115;50.150;8.568;2023-01-30T15:26:12;8.40;99.90
14079;DHT22;7115;50.150;8.568;2023-01-30T15:28:49;8.40;99.90
14079;DHT22;7115;50.150;8.568;2023-01-30T15:31:19;8.40;99.90
14079;DHT22;7115;50.150;8.568;2023-01-30T15:33:49;8.50;99.90
14079;DHT22;7115;50.150;8.568;2023-01-30T15:36:18;8.50;99.90
14079;DHT22;7115;50.150;8.568;2023-01-30T15:38:48;8.50;99.90
14079;DHT22;7115;50.150;8.568;2023-01-30T15:41:22;8.50;99.90
14079;DHT22;7115;50.150;8.568;2023-01-30T15:46:47;8.50;99.90
14079;DHT22;7115;50.150;8.568;2023-01-30T15:52:17;8.60;99.90
14079;DHT22;7115;50.150;8.568;2023-01-30T15:54:49;8.50;99.90
14079;DHT22;7115;50.150;8.568;2023-01-30T15:57:22;8.50;99.90
14079;DHT22;7115;50.150;8.568;2023-01-30T15:59:52;8.50;99.90
14079;DHT22;7115;50.150;8.568;2023-01-30T16:02:26;8.50;99.90
14079;DHT22;7115;50.150;8.568;2023-01-30T16:05:11;8.50;99.90
14079;DHT22;7115;50.150;8.568;2023-01-30T16:07:39;8.50;99.90
14079;DHT22;7115;50.150;8.568;2023-01-30T16:10:11;8.50;99.90
14079;DHT22;7115;50.150;8.568;2023-01-30T16:12:40;8.40;99.90
14079;DHT22;7115;50.150;8.568;2023-01-30T16:15:15;8.30;99.90
14079;DHT22;7115;50.150;8.568;2023-01-30T16:17:53;8.30;99.90
14079;DHT22;7115;50.150;8.568;2023-01-30T16:20:21;8.30;99.90
14079;DHT22;7115;50.150;8.568;2023-01-30T16:22:48;8.20;99.90
14079;DHT22;7115;50.150;8.568;2023-01-30T16:25:19;8.10;99.90
14079;DHT22;7115;50.150;8.568;2023-01-30T16:27:49;8.00;99.90
14079;DHT22;7115;50.150;8.568;2023-01-30T16:30:22;7.90;99.90
14079;DHT22;7115;50.150;8.568;2023-01-30T16:32:52;7.90;99.90
14079;DHT22;7115;50.150;8.568;2023-01-30T16:35:31;7.80;99.90
14079;DHT22;7115;50.150;8.568;2023-01-30T16:38:01;7.80;99.90
14079;DHT22;7115;50.150;8.568;2023-01-30T16:40:29;7.90;99.90
14079;DHT22;7115;50.150;8.568;2023-01-30T16:43:01;7.70;99.90
14079;DHT22;7115;50.150;8.568;2023-01-30T16:48:46;7.60;99.90
14079;DHT22;7115;50.150;8.568;2023-01-30T16:51:19;7.60;99.90
14079;DHT22;7115;50.150;8.568;2023-01-30T16:54:00;7.50;99.90
14079;DHT22;7115;50.150;8.568;2023-01-30T16:56:29;7.50;99.90
14079;DHT22;7115;50.150;8.568;2023-01-30T16:58:59;7.40;99.90
14079;DHT22;7115;50.150;8.568;2023-01-30T17:01:38;7.30;99.90
14079;DHT22;7115;50.150;8.568;2023-01-30T17:04:15;7.20;99.90